createdAt,value
2022-12-15T00:00:35.367Z,-1.75
2022-12-15T00:03:25.523Z,-1.75
2022-12-15T00:06:12.110Z,-1.74
2022-12-15T00:08:59.914Z,-1.74
2022-12-15T00:11:46.145Z,-1.76
2022-12-15T00:14:32.588Z,-1.77
2022-12-15T00:17:18.994Z,-1.76
2022-12-15T00:20:05.325Z,-1.77
2022-12-15T00:22:51.482Z,-1.76
2022-12-15T00:25:38.922Z,-1.77
2022-12-15T00:28:25.309Z,-1.75
2022-12-15T00:31:11.729Z,-1.75
2022-12-15T00:33:57.829Z,-1.76
2022-12-15T00:36:44.197Z,-1.81
2022-12-15T00:39:18.591Z,-1.78
2022-12-15T00:41:48.484Z,-1.80
2022-12-15T00:44:20.579Z,-1.76
2022-12-15T00:46:54.600Z,-1.77
2022-12-15T00:49:41.035Z,-1.79
2022-12-15T00:52:27.919Z,-1.77
2022-12-15T00:55:14.150Z,-1.83
2022-12-15T00:58:01.726Z,-1.86
2022-12-15T01:00:48.294Z,-1.86
2022-12-15T01:03:38.062Z,-1.86
2022-12-15T01:06:25.638Z,-1.87
2022-12-15T01:09:11.592Z,-1.85
2022-12-15T01:11:58.176Z,-1.86
2022-12-15T01:14:45.960Z,-1.88
2022-12-15T01:17:32.102Z,-1.89
2022-12-15T01:20:18.474Z,-1.88
2022-12-15T01:22:47.510Z,-1.84
2022-12-15T01:25:16.867Z,-1.85
2022-12-15T01:27:45.729Z,-1.83
2022-12-15T01:30:18.095Z,-1.82
2022-12-15T01:32:47.430Z,-1.84
2022-12-15T01:35:17.692Z,-1.87
2022-12-15T01:37:50.016Z,-1.84
2022-12-15T01:40:39.218Z,-1.88
2022-12-15T01:43:14.062Z,-1.89
2022-12-15T01:45:55.418Z,-1.88
2022-12-15T01:48:30.992Z,-1.85
2022-12-15T01:51:07.262Z,-1.87
2022-12-15T01:53:40.944Z,-1.86
2022-12-15T01:56:10.782Z,-1.90
2022-12-15T01:58:43.110Z,-1.89
2022-12-15T02:01:13.658Z,-1.89
2022-12-15T02:03:43.536Z,-1.90
2022-12-15T02:06:12.793Z,-1.90
2022-12-15T02:08:42.962Z,-1.92
2022-12-15T02:11:38.342Z,-1.91
2022-12-15T02:14:08.274Z,-1.88
2022-12-15T02:16:56.950Z,-1.94
2022-12-15T02:19:54.593Z,-1.93
2022-12-15T02:22:33.167Z,-1.93
2022-12-15T02:25:23.110Z,-1.90
2022-12-15T02:28:00.223Z,-1.91
2022-12-15T02:30:45.707Z,-1.90
2022-12-15T02:33:16.575Z,-1.90
2022-12-15T02:35:58.258Z,-1.88
2022-12-15T02:38:35.962Z,-1.91
2022-12-15T02:41:07.283Z,-1.93
2022-12-15T02:43:38.839Z,-1.94
2022-12-15T02:46:17.652Z,-1.94
2022-12-15T02:48:56.396Z,-1.97
2022-12-15T02:51:36.160Z,-1.96
2022-12-15T02:54:25.541Z,-1.94
2022-12-15T02:57:03.849Z,-1.92
2022-12-15T02:59:39.471Z,-1.89
2022-12-15T03:02:11.214Z,-1.93
2022-12-15T03:04:40.856Z,-1.91
2022-12-15T03:07:11.163Z,-1.92
2022-12-15T03:09:39.923Z,-1.94
2022-12-15T03:12:10.596Z,-1.96
2022-12-15T03:14:39.378Z,-1.96
2022-12-15T03:17:09.827Z,-1.97
2022-12-15T03:19:38.551Z,-1.96
2022-12-15T03:22:08.672Z,-1.94
2022-12-15T03:24:37.840Z,-1.92
2022-12-15T03:27:06.503Z,-1.91
2022-12-15T03:29:35.383Z,-1.92
2022-12-15T03:32:04.285Z,-1.94
2022-12-15T03:34:34.367Z,-1.93
2022-12-15T03:37:03.142Z,-1.92
2022-12-15T03:39:31.973Z,-1.94
2022-12-15T03:42:00.669Z,-1.93
2022-12-15T03:44:29.436Z,-1.91
2022-12-15T03:47:02.939Z,-1.93
2022-12-15T03:49:33.306Z,-1.93
2022-12-15T03:52:02.579Z,-1.98
2022-12-15T03:54:31.753Z,-1.94
2022-12-15T03:57:00.626Z,-1.95
2022-12-15T03:59:29.557Z,-1.93
2022-12-15T04:01:58.356Z,-1.92
2022-12-15T04:04:27.099Z,-1.91
2022-12-15T04:06:57.370Z,-1.92
2022-12-15T04:09:26.188Z,-1.93
2022-12-15T04:11:55.071Z,-1.92
2022-12-15T04:14:23.727Z,-1.95
2022-12-15T04:16:52.639Z,-1.95
2022-12-15T04:19:39.104Z,-1.93
2022-12-15T04:22:11.625Z,-1.95
2022-12-15T04:25:01.283Z,-1.93
2022-12-15T04:27:47.666Z,-1.92
2022-12-15T04:30:33.906Z,-1.97
2022-12-15T04:33:20.382Z,-1.98
2022-12-15T04:36:07.202Z,-1.95
2022-12-15T04:38:55.014Z,-1.95
2022-12-15T04:41:42.186Z,-1.95
2022-12-15T04:44:30.003Z,-1.99
2022-12-15T04:47:16.140Z,-1.94
2022-12-15T04:50:02.572Z,-1.99
2022-12-15T04:52:49.016Z,-1.95
2022-12-15T04:55:36.816Z,-1.96
2022-12-15T04:58:26.840Z,-1.96
2022-12-15T05:01:15.967Z,-1.96
2022-12-15T05:04:02.642Z,-1.98
2022-12-15T05:06:48.950Z,-1.98
2022-12-15T05:09:34.770Z,-1.99
2022-12-15T05:12:22.369Z,-1.98
2022-12-15T05:15:08.285Z,-1.95
2022-12-15T05:17:54.753Z,-1.95
2022-12-15T05:20:40.923Z,-1.97
2022-12-15T05:23:27.568Z,-1.96
2022-12-15T05:26:14.103Z,-1.95
2022-12-15T05:29:01.962Z,-1.92
2022-12-15T05:31:51.726Z,-1.93
2022-12-15T05:34:22.053Z,-1.95
2022-12-15T05:36:50.938Z,-1.97
2022-12-15T05:39:19.825Z,-1.93
2022-12-15T05:41:48.711Z,-1.94
2022-12-15T05:44:19.044Z,-1.93
2022-12-15T05:46:47.912Z,-1.92
2022-12-15T05:49:18.204Z,-1.95
2022-12-15T05:51:48.288Z,-1.98
2022-12-15T05:54:18.934Z,-1.97
2022-12-15T05:56:49.968Z,-1.96
2022-12-15T05:59:20.895Z,-1.94
2022-12-15T06:01:49.885Z,-1.98
2022-12-15T06:04:19.567Z,-1.95
2022-12-15T06:06:48.408Z,-1.94
2022-12-15T06:09:17.032Z,-1.94
2022-12-15T06:11:45.927Z,-1.91
2022-12-15T06:14:14.824Z,-1.91
2022-12-15T06:16:49.990Z,-1.91
2022-12-15T06:19:20.860Z,-1.90
2022-12-15T06:21:50.009Z,-1.90
2022-12-15T06:24:18.679Z,-1.94
2022-12-15T06:26:49.753Z,-1.96
2022-12-15T06:29:19.295Z,-1.95
2022-12-15T06:31:49.636Z,-1.96
2022-12-15T06:34:18.613Z,-1.97
2022-12-15T06:36:47.400Z,-1.95
2022-12-15T06:39:17.459Z,-1.95
2022-12-15T06:41:46.514Z,-1.92
2022-12-15T06:44:16.988Z,-1.90
2022-12-15T06:46:46.459Z,-1.89
2022-12-15T06:49:16.633Z,-1.89
2022-12-15T06:51:45.378Z,-1.90
2022-12-15T06:54:13.966Z,-1.93
2022-12-15T06:56:42.758Z,-1.93
2022-12-15T06:59:12.403Z,-1.93
2022-12-15T07:01:41.920Z,-1.91
2022-12-15T07:04:11.260Z,-1.89
2022-12-15T07:06:42.484Z,-1.89
2022-12-15T07:09:16.036Z,-1.89
2022-12-15T07:11:45.135Z,-1.92
2022-12-15T07:14:13.781Z,-1.89
2022-12-15T07:16:42.594Z,-1.92
2022-12-15T07:19:13.291Z,-1.92
2022-12-15T07:21:43.652Z,-1.94
2022-12-15T07:24:13.292Z,-1.94
2022-12-15T07:26:42.750Z,-1.92
2022-12-15T07:29:14.878Z,-1.92
2022-12-15T07:31:46.208Z,-1.93
2022-12-15T07:34:15.002Z,-1.92
2022-12-15T07:36:51.562Z,-1.95
2022-12-15T07:39:21.325Z,-1.94
2022-12-15T07:41:50.197Z,-1.94
2022-12-15T07:44:19.374Z,-1.93
2022-12-15T07:46:49.138Z,-1.87
2022-12-15T07:49:18.345Z,-1.88
2022-12-15T07:51:48.519Z,-1.85
2022-12-15T07:54:17.579Z,-1.82
2022-12-15T07:56:50.176Z,-1.86
2022-12-15T07:59:19.561Z,-1.83
2022-12-15T08:01:49.562Z,-1.81
2022-12-15T08:04:18.732Z,-1.81
2022-12-15T08:06:48.721Z,-1.81
2022-12-15T08:09:17.525Z,-1.79
2022-12-15T08:11:46.186Z,-1.76
2022-12-15T08:14:17.875Z,-1.79
2022-12-15T08:16:47.426Z,-1.80
2022-12-15T08:19:16.896Z,-1.79
2022-12-15T08:21:47.887Z,-1.76
2022-12-15T08:24:17.192Z,-1.74
2022-12-15T08:26:50.109Z,-1.74
2022-12-15T08:32:08.521Z,-1.57
2022-12-15T08:34:37.336Z,-1.60
2022-12-15T08:37:07.447Z,-1.64
2022-12-15T08:39:36.143Z,-1.61
2022-12-15T08:42:05.068Z,-1.58
2022-12-15T08:44:33.859Z,-1.58
2022-12-15T08:47:02.454Z,-1.49
2022-12-15T08:49:31.297Z,-1.40
2022-12-15T08:52:00.138Z,-1.41
2022-12-15T08:54:30.214Z,-1.32
2022-12-15T08:56:58.942Z,-1.41
2022-12-15T08:59:27.921Z,-1.45
2022-12-15T09:01:56.629Z,-1.42
2022-12-15T09:04:25.421Z,-1.38
2022-12-15T09:06:54.456Z,-1.36
2022-12-15T09:09:23.459Z,-1.35
2022-12-15T09:11:53.423Z,-1.34
2022-12-15T09:14:28.794Z,-1.32
2022-12-15T09:16:58.212Z,-1.29
2022-12-15T09:19:27.077Z,-1.29
2022-12-15T09:21:55.772Z,-1.26
2022-12-15T09:24:32.441Z,-1.18
2022-12-15T09:27:04.972Z,-1.12
2022-12-15T09:29:33.870Z,-1.09
2022-12-15T09:32:02.644Z,-1.04
2022-12-15T09:34:31.433Z,-0.97
2022-12-15T09:37:00.385Z,-0.96
2022-12-15T09:39:29.166Z,-0.93
2022-12-15T09:42:01.390Z,-0.94
2022-12-15T09:44:32.794Z,-0.91
2022-12-15T09:47:09.206Z,-0.92
2022-12-15T09:49:52.383Z,-0.86
2022-12-15T09:52:23.109Z,-0.83
2022-12-15T09:54:52.070Z,-0.78
2022-12-15T09:57:37.574Z,-0.82
2022-12-15T10:00:11.449Z,-0.83
2022-12-15T10:03:05.262Z,-0.83
2022-12-15T10:06:07.374Z,-0.78
2022-12-15T10:08:31.542Z,-0.75
2022-12-15T10:11:01.706Z,-0.71
2022-12-15T10:13:38.122Z,-0.71
2022-12-15T10:16:17.626Z,-0.67
2022-12-15T10:18:59.262Z,-0.68
2022-12-15T10:21:31.675Z,-0.69
2022-12-15T10:24:02.849Z,-0.63
2022-12-15T10:26:34.657Z,-0.64
2022-12-15T10:29:20.678Z,-0.62
2022-12-15T10:31:53.643Z,-0.63
2022-12-15T10:34:27.540Z,-0.63
2022-12-15T10:36:57.480Z,-0.64
2022-12-15T10:39:38.085Z,-0.64
2022-12-15T10:42:23.172Z,-0.62
2022-12-15T10:44:52.897Z,-0.54
2022-12-15T10:47:25.943Z,-0.55
2022-12-15T10:49:55.567Z,-0.58
2022-12-15T10:52:33.707Z,-0.60
2022-12-15T10:55:02.831Z,-0.59
2022-12-15T10:57:33.488Z,-0.59
2022-12-15T11:00:27.820Z,-0.57
2022-12-15T11:02:58.481Z,-0.54
2022-12-15T11:05:27.892Z,-0.53
2022-12-15T11:07:57.767Z,-0.46
2022-12-15T11:10:48.942Z,-0.51
2022-12-15T11:13:19.574Z,-0.42
2022-12-15T11:15:50.922Z,-0.39
2022-12-15T11:18:34.064Z,-0.41
2022-12-15T11:21:06.784Z,-0.40
2022-12-15T11:23:49.050Z,-0.35
2022-12-15T11:26:27.901Z,-0.30
2022-12-15T11:29:00.234Z,-0.26
2022-12-15T11:31:35.131Z,-0.25
2022-12-15T11:34:05.482Z,-0.23
2022-12-15T11:37:04.325Z,-0.20
2022-12-15T11:39:43.111Z,-0.16
2022-12-15T11:42:16.288Z,-0.19
2022-12-15T11:44:51.808Z,-0.17
2022-12-15T11:47:26.387Z,-0.15
2022-12-15T11:50:07.176Z,-0.14
2022-12-15T11:52:54.082Z,-0.16
2022-12-15T11:55:32.118Z,-0.14
2022-12-15T11:58:32.143Z,-0.14
2022-12-15T12:01:06.325Z,-0.16
2022-12-15T12:03:41.992Z,-0.11
2022-12-15T12:06:15.724Z,-0.11
2022-12-15T12:09:07.366Z,-0.09
2022-12-15T12:11:41.451Z,-0.10
2022-12-15T12:14:20.151Z,-0.09
2022-12-15T12:16:52.866Z,-0.03
2022-12-15T12:19:26.234Z,-0.01
2022-12-15T12:22:02.071Z,0.03
2022-12-15T12:24:33.958Z,0.08
2022-12-15T12:27:05.832Z,0.07
2022-12-15T12:29:36.668Z,0.06
2022-12-15T12:32:08.963Z,0.09
2022-12-15T12:34:51.452Z,0.12
2022-12-15T12:37:27.139Z,0.14
2022-12-15T12:40:02.020Z,0.17
2022-12-15T12:42:37.271Z,0.19
2022-12-15T12:45:07.388Z,0.26
2022-12-15T12:47:38.521Z,0.32
2022-12-15T12:50:14.671Z,0.32
2022-12-15T12:52:51.055Z,0.33
2022-12-15T12:55:36.733Z,0.34
2022-12-15T12:58:35.861Z,0.40
2022-12-15T13:01:14.479Z,0.48
2022-12-15T13:03:44.956Z,0.55
2022-12-15T13:06:44.110Z,0.54
2022-12-15T13:09:26.171Z,0.53
2022-12-15T13:12:20.933Z,0.48
2022-12-15T13:14:52.120Z,0.46
2022-12-15T13:17:29.775Z,0.55
2022-12-15T13:20:29.359Z,0.58
2022-12-15T13:23:35.126Z,0.60
2022-12-15T13:26:20.471Z,0.61
2022-12-15T13:28:59.079Z,0.61
2022-12-15T13:31:35.282Z,0.59
2022-12-15T13:34:17.366Z,0.58
2022-12-15T13:36:55.138Z,0.61
2022-12-15T13:39:59.086Z,0.59
2022-12-15T13:42:36.999Z,0.58
2022-12-15T13:45:44.541Z,0.59
2022-12-15T13:48:29.426Z,0.62
2022-12-15T13:51:05.444Z,0.54
2022-12-15T13:53:43.144Z,0.58
2022-12-15T13:56:39.023Z,0.55
2022-12-15T13:59:20.581Z,0.55
2022-12-15T14:01:56.451Z,0.48
2022-12-15T14:04:26.570Z,0.53
2022-12-15T14:06:57.243Z,0.56
2022-12-15T14:09:30.486Z,0.56
2022-12-15T14:11:59.951Z,0.52
2022-12-15T14:14:33.785Z,0.52
2022-12-15T14:17:08.254Z,0.46
2022-12-15T14:19:41.792Z,0.44
2022-12-15T14:22:29.509Z,0.48
2022-12-15T14:25:03.629Z,0.49
2022-12-15T14:27:34.283Z,0.49
2022-12-15T14:30:17.095Z,0.45
2022-12-15T14:32:49.262Z,0.47
2022-12-15T14:35:24.469Z,0.47
2022-12-15T14:37:53.702Z,0.49
2022-12-15T14:40:28.461Z,0.46
2022-12-15T14:42:57.989Z,0.44
2022-12-15T14:45:29.901Z,0.41
2022-12-15T14:50:51.232Z,0.43
2022-12-15T14:53:21.759Z,0.37
2022-12-15T14:55:51.495Z,0.38
2022-12-15T14:58:38.185Z,0.36
2022-12-15T15:01:24.938Z,0.32
2022-12-15T15:04:02.807Z,0.31
2022-12-15T15:06:37.222Z,0.34
2022-12-15T15:09:18.792Z,0.32
2022-12-15T15:11:48.156Z,0.35
2022-12-15T15:14:20.032Z,0.32
2022-12-15T15:17:05.439Z,0.32
2022-12-15T15:19:39.334Z,0.29
2022-12-15T15:22:21.608Z,0.24
2022-12-15T15:24:53.004Z,0.23
2022-12-15T15:27:27.843Z,0.25
2022-12-15T15:30:21.786Z,0.20
2022-12-15T15:32:55.395Z,0.20
2022-12-15T15:35:30.139Z,0.27
2022-12-15T15:38:03.756Z,0.28
2022-12-15T15:40:32.741Z,0.26
2022-12-15T15:43:01.766Z,0.24
2022-12-15T15:45:31.114Z,0.19
2022-12-15T15:47:59.830Z,0.22
2022-12-15T15:50:31.007Z,0.21
2022-12-15T15:53:00.160Z,0.21
2022-12-15T15:55:37.786Z,0.17
2022-12-15T15:58:12.614Z,0.20
2022-12-15T16:00:41.731Z,0.18
2022-12-15T16:03:10.967Z,0.21
2022-12-15T16:05:41.763Z,0.15
2022-12-15T16:08:14.976Z,0.18
2022-12-15T16:10:45.773Z,0.18
2022-12-15T16:13:16.709Z,0.22
2022-12-15T16:15:45.768Z,0.20
2022-12-15T16:18:15.055Z,0.17
2022-12-15T16:20:48.939Z,0.14
2022-12-15T16:23:20.066Z,0.12
2022-12-15T16:25:51.397Z,0.11
2022-12-15T16:28:22.102Z,0.11
2022-12-15T16:30:51.429Z,0.09
2022-12-15T16:33:20.344Z,0.11
2022-12-15T16:35:51.603Z,0.11
2022-12-15T16:38:24.296Z,0.09
2022-12-15T16:40:53.363Z,0.08
2022-12-15T16:43:29.003Z,0.08
2022-12-15T16:45:59.371Z,0.09
2022-12-15T16:48:29.468Z,0.05
2022-12-15T16:51:00.526Z,0.06
2022-12-15T16:53:30.454Z,0.08
2022-12-15T16:56:00.117Z,0.10
2022-12-15T16:58:30.371Z,0.08
2022-12-15T17:00:59.526Z,0.06
2022-12-15T17:03:28.936Z,0.09
2022-12-15T17:06:02.029Z,0.05
2022-12-15T17:08:36.448Z,0.04
2022-12-15T17:11:06.304Z,0.03
2022-12-15T17:13:42.103Z,-0.01
2022-12-15T17:16:15.185Z,0.01
2022-12-15T17:18:44.685Z,0.01
2022-12-15T17:21:17.342Z,-0.03
2022-12-15T17:23:47.220Z,-0.02
2022-12-15T17:26:28.194Z,0.00
2022-12-15T17:28:59.514Z,-0.01
2022-12-15T17:31:34.623Z,0.02
2022-12-15T17:34:08.402Z,0.00
2022-12-15T17:36:38.895Z,0.02
2022-12-15T17:39:10.397Z,0.02
2022-12-15T17:44:34.098Z,0.02
2022-12-15T17:47:04.566Z,-0.01
2022-12-15T17:49:36.423Z,-0.04
2022-12-15T17:52:15.226Z,-0.03
2022-12-15T17:54:44.164Z,-0.07
2022-12-15T17:57:13.603Z,-0.06
2022-12-15T17:59:42.294Z,0.00
2022-12-15T18:02:14.049Z,-0.03
2022-12-15T18:04:43.576Z,-0.02
2022-12-15T18:07:19.230Z,-0.03
2022-12-15T18:09:48.155Z,-0.03
2022-12-15T18:12:21.274Z,-0.06
2022-12-15T18:14:50.161Z,-0.11
2022-12-15T18:17:19.058Z,-0.11
2022-12-15T18:19:47.906Z,-0.12
2022-12-15T18:22:22.020Z,-0.07
2022-12-15T18:24:51.515Z,-0.05
2022-12-15T18:27:23.802Z,-0.01
2022-12-15T18:29:52.562Z,-0.03
2022-12-15T18:32:22.887Z,-0.05
2022-12-15T18:34:52.439Z,-0.10
2022-12-15T18:37:24.860Z,-0.12
2022-12-15T18:39:55.365Z,-0.07
2022-12-15T18:42:26.039Z,-0.14
2022-12-15T18:44:56.584Z,-0.18
2022-12-15T18:47:26.417Z,-0.12
2022-12-15T18:49:55.054Z,-0.11
2022-12-15T18:52:31.422Z,-0.11
2022-12-15T18:55:01.830Z,-0.13
2022-12-15T18:57:32.343Z,-0.13
2022-12-15T19:00:02.118Z,-0.15
2022-12-15T19:02:30.994Z,-0.20
2022-12-15T19:04:59.692Z,-0.15
2022-12-15T19:07:29.788Z,-0.17
2022-12-15T19:09:58.649Z,-0.18
2022-12-15T19:12:27.512Z,-0.22
2022-12-15T19:14:56.445Z,-0.24
2022-12-15T19:17:43.392Z,-0.17
2022-12-15T19:20:35.835Z,-0.21
2022-12-15T19:23:06.452Z,-0.19
2022-12-15T19:25:35.482Z,-0.20
2022-12-15T19:28:06.946Z,-0.18
2022-12-15T19:30:41.954Z,-0.18
2022-12-15T19:33:11.832Z,-0.18
2022-12-15T19:35:42.628Z,-0.21
2022-12-15T19:38:24.333Z,-0.20
2022-12-15T19:40:54.580Z,-0.20
2022-12-15T19:43:24.610Z,-0.21
2022-12-15T19:45:54.034Z,-0.18
2022-12-15T19:48:24.108Z,-0.20
2022-12-15T19:50:54.750Z,-0.22
2022-12-15T19:53:28.539Z,-0.23
2022-12-15T19:55:59.898Z,-0.29
2022-12-15T19:58:30.897Z,-0.35
2022-12-15T20:01:01.511Z,-0.34
2022-12-15T20:03:32.089Z,-0.34
2022-12-15T20:06:03.086Z,-0.34
2022-12-15T20:08:36.814Z,-0.34
2022-12-15T20:11:06.168Z,-0.34
2022-12-15T20:13:35.671Z,-0.27
2022-12-15T20:16:05.228Z,-0.28
2022-12-15T20:18:34.723Z,-0.31
2022-12-15T20:21:04.100Z,-0.31
2022-12-15T20:23:34.923Z,-0.33
2022-12-15T20:26:03.949Z,-0.31
2022-12-15T20:28:32.991Z,-0.26
2022-12-15T20:31:01.708Z,-0.31
2022-12-15T20:33:30.873Z,-0.39
2022-12-15T20:36:00.750Z,-0.39
2022-12-15T20:38:31.810Z,-0.35
2022-12-15T20:41:03.704Z,-0.33
2022-12-15T20:43:34.756Z,-0.37
2022-12-15T20:46:06.585Z,-0.40
2022-12-15T20:48:36.528Z,-0.47
2022-12-15T20:51:09.538Z,-0.42
2022-12-15T20:53:39.795Z,-0.42
2022-12-15T20:56:10.566Z,-0.47
2022-12-15T20:58:39.533Z,-0.51
2022-12-15T21:01:19.077Z,-0.59
2022-12-15T21:03:48.458Z,-0.60
2022-12-15T21:06:17.897Z,-0.62
2022-12-15T21:08:46.878Z,-0.63
2022-12-15T21:11:19.328Z,-0.65
2022-12-15T21:13:49.925Z,-0.70
2022-12-15T21:16:20.935Z,-0.69
2022-12-15T21:19:19.170Z,-0.70
2022-12-15T21:21:41.150Z,-0.75
2022-12-15T21:24:16.341Z,-0.75
2022-12-15T21:26:46.289Z,-0.77
2022-12-15T21:29:17.873Z,-0.70
2022-12-15T21:31:47.078Z,-0.69
2022-12-15T21:34:16.068Z,-0.75
2022-12-15T21:36:47.876Z,-0.73
2022-12-15T21:39:22.418Z,-0.77
2022-12-15T21:41:52.585Z,-0.78
2022-12-15T21:44:24.006Z,-0.82
2022-12-15T21:46:52.783Z,-0.81
2022-12-15T21:49:22.348Z,-0.80
2022-12-15T21:51:53.760Z,-0.79
2022-12-15T21:54:30.719Z,-0.86
2022-12-15T21:57:02.887Z,-0.84
2022-12-15T21:59:33.167Z,-0.84
2022-12-15T22:02:02.431Z,-0.92
2022-12-15T22:04:33.819Z,-0.97
2022-12-15T22:07:02.643Z,-0.89
2022-12-15T22:09:31.434Z,-0.94
2022-12-15T22:12:02.026Z,-0.88
2022-12-15T22:14:32.920Z,-0.86
2022-12-15T22:17:03.175Z,-0.93
2022-12-15T22:19:31.816Z,-0.89
2022-12-15T22:22:00.561Z,-0.90
2022-12-15T22:24:29.136Z,-0.96
2022-12-15T22:26:58.347Z,-1.01
2022-12-15T22:29:31.503Z,-1.05
2022-12-15T22:32:00.125Z,-1.01
2022-12-15T22:34:29.036Z,-1.09
2022-12-15T22:36:57.687Z,-1.13
2022-12-15T22:39:26.298Z,-1.14
2022-12-15T22:41:55.156Z,-1.10
2022-12-15T22:44:26.143Z,-1.11
2022-12-15T22:46:58.009Z,-1.16
2022-12-15T22:49:29.878Z,-1.15
2022-12-15T22:51:58.656Z,-1.20
2022-12-15T22:54:29.276Z,-1.19
2022-12-15T22:57:02.013Z,-1.21
2022-12-15T22:59:33.588Z,-1.26
2022-12-15T23:02:04.475Z,-1.28
2022-12-15T23:04:33.686Z,-1.25
2022-12-15T23:07:04.995Z,-1.26
2022-12-15T23:09:33.947Z,-1.35
2022-12-15T23:12:01.957Z,-1.41
2022-12-15T23:14:48.460Z,-1.40
2022-12-15T23:17:18.692Z,-1.39
2022-12-15T23:19:47.566Z,-1.45
2022-12-15T23:22:16.322Z,-1.40
2022-12-15T23:24:44.901Z,-1.41
2022-12-15T23:27:13.634Z,-1.44
2022-12-15T23:29:42.243Z,-1.39
2022-12-15T23:32:10.793Z,-1.45
2022-12-15T23:34:40.942Z,-1.47
2022-12-15T23:37:09.494Z,-1.51
2022-12-15T23:39:38.227Z,-1.56
2022-12-15T23:42:07.086Z,-1.55
2022-12-15T23:44:37.440Z,-1.53
2022-12-15T23:47:06.578Z,-1.54
2022-12-15T23:49:35.217Z,-1.52
2022-12-15T23:52:05.663Z,-1.50
2022-12-15T23:54:34.272Z,-1.46
2022-12-15T23:57:03.317Z,-1.44
2022-12-15T23:59:32.049Z,-1.42
